sensor_id;sensor_type;location;lat;lon;timestamp;temperature;humidity
16402;DHT22;8310;44.626;11.176;2024-03-08T00:02:16;10.30;67.40
16402;DHT22;8310;44.626;11.176;2024-03-08T00:04:43;10.20;67.50
16402;DHT22;8310;44.626;11.176;2024-03-08T00:07:12;10.20;67.80
16402;DHT22;8310;44.626;11.176;2024-03-08T00:09:40;10.20;68.10
16402;DHT22;8310;44.626;11.176;2024-03-08T00:12:07;10.20;68.20
16402;DHT22;8310;44.626;11.176;2024-03-08T00:14:35;10.30;68.30
16402;DHT22;8310;44.626;11.176;2024-03-08T00:17:02;10.30;68.30
16402;DHT22;8310;44.626;11.176;2024-03-08T00:19:30;10.30;68.20
16402;DHT22;8310;44.626;11.176;2024-03-08T00:21:57;10.30;68.10
16402;DHT22;8310;44.626;11.176;2024-03-08T00:24:26;10.20;68.10
16402;DHT22;8310;44.626;11.176;2024-03-08T00:26:54;10.20;68.10
16402;DHT22;8310;44.626;11.176;2024-03-08T00:29:21;10.20;68.20
16402;DHT22;8310;44.626;11.176;2024-03-08T00:31:48;10.30;68.40
16402;DHT22;8310;44.626;11.176;2024-03-08T00:34:15;10.30;68.50
16402;DHT22;8310;44.626;11.176;2024-03-08T00:36:43;10.30;68.60
16402;DHT22;8310;44.626;11.176;2024-03-08T00:39:10;10.30;68.70
16402;DHT22;8310;44.626;11.176;2024-03-08T00:41:38;10.40;68.80
16402;DHT22;8310;44.626;11.176;2024-03-08T00:44:06;10.40;68.70
16402;DHT22;8310;44.626;11.176;2024-03-08T00:46:33;10.40;68.70
16402;DHT22;8310;44.626;11.176;2024-03-08T00:49:00;10.40;68.70
16402;DHT22;8310;44.626;11.176;2024-03-08T00:51:28;10.40;68.80
16402;DHT22;8310;44.626;11.176;2024-03-08T00:53:55;10.50;68.80
16402;DHT22;8310;44.626;11.176;2024-03-08T00:56:22;10.40;68.70
16402;DHT22;8310;44.626;11.176;2024-03-08T00:58:51;10.40;68.70
16402;DHT22;8310;44.626;11.176;2024-03-08T01:01:19;10.50;68.80
16402;DHT22;8310;44.626;11.176;2024-03-08T01:03:46;10.50;68.80
16402;DHT22;8310;44.626;11.176;2024-03-08T01:06:14;10.50;68.80
16402;DHT22;8310;44.626;11.176;2024-03-08T01:08:41;10.50;68.70
16402;DHT22;8310;44.626;11.176;2024-03-08T01:11:08;10.50;68.70
16402;DHT22;8310;44.626;11.176;2024-03-08T01:13:37;10.40;68.60
16402;DHT22;8310;44.626;11.176;2024-03-08T01:16:06;10.40;68.70
16402;DHT22;8310;44.626;11.176;2024-03-08T01:18:35;10.40;68.70
16402;DHT22;8310;44.626;11.176;2024-03-08T01:21:02;10.40;68.70
16402;DHT22;8310;44.626;11.176;2024-03-08T01:23:29;10.40;68.80
16402;DHT22;8310;44.626;11.176;2024-03-08T01:25:56;10.40;68.70
16402;DHT22;8310;44.626;11.176;2024-03-08T01:28:23;10.40;68.70
16402;DHT22;8310;44.626;11.176;2024-03-08T01:30:51;10.30;68.60
16402;DHT22;8310;44.626;11.176;2024-03-08T01:33:22;10.30;68.50
16402;DHT22;8310;44.626;11.176;2024-03-08T01:35:49;10.30;68.60
16402;DHT22;8310;44.626;11.176;2024-03-08T01:38:17;10.30;68.60
16402;DHT22;8310;44.626;11.176;2024-03-08T01:40:44;10.30;68.60
16402;DHT22;8310;44.626;11.176;2024-03-08T01:43:16;10.20;68.60
16402;DHT22;8310;44.626;11.176;2024-03-08T01:45:43;10.20;68.60
16402;DHT22;8310;44.626;11.176;2024-03-08T01:48:10;10.20;68.60
16402;DHT22;8310;44.626;11.176;2024-03-08T01:50:39;10.20;68.60
16402;DHT22;8310;44.626;11.176;2024-03-08T01:53:06;10.20;68.50
16402;DHT22;8310;44.626;11.176;2024-03-08T01:55:35;10.20;68.50
16402;DHT22;8310;44.626;11.176;2024-03-08T01:58:03;10.10;68.50
16402;DHT22;8310;44.626;11.176;2024-03-08T02:00:31;10.10;68.60
16402;DHT22;8310;44.626;11.176;2024-03-08T02:02:59;10.10;68.60
16402;DHT22;8310;44.626;11.176;2024-03-08T02:05:26;10.10;68.60
16402;DHT22;8310;44.626;11.176;2024-03-08T02:07:54;10.20;68.70
16402;DHT22;8310;44.626;11.176;2024-03-08T02:10:22;10.10;68.70
16402;DHT22;8310;44.626;11.176;2024-03-08T02:12:49;10.10;68.70
16402;DHT22;8310;44.626;11.176;2024-03-08T02:15:17;10.10;68.70
16402;DHT22;8310;44.626;11.176;2024-03-08T02:17:45;10.10;68.70
16402;DHT22;8310;44.626;11.176;2024-03-08T02:20:12;10.10;68.60
16402;DHT22;8310;44.626;11.176;2024-03-08T02:22:41;10.00;68.60
16402;DHT22;8310;44.626;11.176;2024-03-08T02:25:09;10.00;68.50
16402;DHT22;8310;44.626;11.176;2024-03-08T02:27:36;9.90;68.30
16402;DHT22;8310;44.626;11.176;2024-03-08T02:30:04;9.80;67.90
16402;DHT22;8310;44.626;11.176;2024-03-08T02:32:32;9.70;67.70
16402;DHT22;8310;44.626;11.176;2024-03-08T02:34:59;9.50;67.60
16402;DHT22;8310;44.626;11.176;2024-03-08T02:37:26;9.40;67.60
16402;DHT22;8310;44.626;11.176;2024-03-08T02:39:56;9.40;67.90
16402;DHT22;8310;44.626;11.176;2024-03-08T02:42:23;9.30;68.10
16402;DHT22;8310;44.626;11.176;2024-03-08T02:44:50;9.30;68.30
16402;DHT22;8310;44.626;11.176;2024-03-08T02:47:17;9.30;68.30
16402;DHT22;8310;44.626;11.176;2024-03-08T02:49:46;9.40;68.20
16402;DHT22;8310;44.626;11.176;2024-03-08T02:52:13;9.30;68.00
16402;DHT22;8310;44.626;11.176;2024-03-08T02:54:41;9.30;67.80
16402;DHT22;8310;44.626;11.176;2024-03-08T02:57:10;9.20;67.90
16402;DHT22;8310;44.626;11.176;2024-03-08T02:59:37;9.20;68.10
16402;DHT22;8310;44.626;11.176;2024-03-08T03:02:05;9.20;68.20
16402;DHT22;8310;44.626;11.176;2024-03-08T03:04:33;9.20;68.00
16402;DHT22;8310;44.626;11.176;2024-03-08T03:07:01;9.10;67.60
16402;DHT22;8310;44.626;11.176;2024-03-08T03:09:30;9.10;67.50
16402;DHT22;8310;44.626;11.176;2024-03-08T03:11:58;8.90;67.30
16402;DHT22;8310;44.626;11.176;2024-03-08T03:14:26;8.80;67.30
16402;DHT22;8310;44.626;11.176;2024-03-08T03:16:53;8.80;67.30
16402;DHT22;8310;44.626;11.176;2024-03-08T03:19:20;8.70;67.20
16402;DHT22;8310;44.626;11.176;2024-03-08T03:21:47;8.60;68.00
16402;DHT22;8310;44.626;11.176;2024-03-08T03:24:14;8.60;67.30
16402;DHT22;8310;44.626;11.176;2024-03-08T03:26:41;8.50;67.30
16402;DHT22;8310;44.626;11.176;2024-03-08T03:29:09;8.50;67.30
16402;DHT22;8310;44.626;11.176;2024-03-08T03:31:37;8.40;67.20
16402;DHT22;8310;44.626;11.176;2024-03-08T03:34:05;8.40;67.20
16402;DHT22;8310;44.626;11.176;2024-03-08T03:36:34;8.30;67.30
16402;DHT22;8310;44.626;11.176;2024-03-08T03:39:03;8.30;67.40
16402;DHT22;8310;44.626;11.176;2024-03-08T03:41:36;8.30;67.40
16402;DHT22;8310;44.626;11.176;2024-03-08T03:44:04;8.20;67.30
16402;DHT22;8310;44.626;11.176;2024-03-08T03:46:30;8.10;67.20
16402;DHT22;8310;44.626;11.176;2024-03-08T03:48:59;8.00;67.20
16402;DHT22;8310;44.626;11.176;2024-03-08T03:51:26;7.90;67.20
16402;DHT22;8310;44.626;11.176;2024-03-08T03:53:54;7.80;67.30
16402;DHT22;8310;44.626;11.176;2024-03-08T03:56:24;7.70;67.30
16402;DHT22;8310;44.626;11.176;2024-03-08T03:58:52;7.60;67.30
16402;DHT22;8310;44.626;11.176;2024-03-08T04:01:19;7.60;68.20
16402;DHT22;8310;44.626;11.176;2024-03-08T04:03:46;7.50;67.40
16402;DHT22;8310;44.626;11.176;2024-03-08T04:06:15;7.50;67.40
16402;DHT22;8310;44.626;11.176;2024-03-08T04:08:42;7.40;67.50
16402;DHT22;8310;44.626;11.176;2024-03-08T04:11:09;7.40;67.50
16402;DHT22;8310;44.626;11.176;2024-03-08T04:13:36;7.40;67.70
16402;DHT22;8310;44.626;11.176;2024-03-08T04:16:03;7.50;67.90
16402;DHT22;8310;44.626;11.176;2024-03-08T04:18:33;7.50;68.10
16402;DHT22;8310;44.626;11.176;2024-03-08T04:21:01;7.60;68.20
16402;DHT22;8310;44.626;11.176;2024-03-08T04:23:29;7.60;68.10
16402;DHT22;8310;44.626;11.176;2024-03-08T04:25:56;7.70;68.30
16402;DHT22;8310;44.626;11.176;2024-03-08T04:28:23;7.70;68.30
16402;DHT22;8310;44.626;11.176;2024-03-08T04:30:50;7.80;68.40
16402;DHT22;8310;44.626;11.176;2024-03-08T04:33:17;7.80;68.30
16402;DHT22;8310;44.626;11.176;2024-03-08T04:35:45;7.90;68.30
16402;DHT22;8310;44.626;11.176;2024-03-08T04:38:12;7.90;68.30
16402;DHT22;8310;44.626;11.176;2024-03-08T04:40:41;7.90;68.30
16402;DHT22;8310;44.626;11.176;2024-03-08T04:43:08;7.90;68.30
16402;DHT22;8310;44.626;11.176;2024-03-08T04:45:35;8.00;68.50
16402;DHT22;8310;44.626;11.176;2024-03-08T04:48:03;8.00;68.30
16402;DHT22;8310;44.626;11.176;2024-03-08T04:50:30;8.00;68.30
16402;DHT22;8310;44.626;11.176;2024-03-08T04:52:57;8.00;68.40
16402;DHT22;8310;44.626;11.176;2024-03-08T04:55:24;8.00;68.40
16402;DHT22;8310;44.626;11.176;2024-03-08T04:57:53;8.00;68.30
16402;DHT22;8310;44.626;11.176;2024-03-08T05:00:20;8.00;68.30
16402;DHT22;8310;44.626;11.176;2024-03-08T05:02:47;8.00;68.20
16402;DHT22;8310;44.626;11.176;2024-03-08T05:05:14;7.90;68.00
16402;DHT22;8310;44.626;11.176;2024-03-08T05:07:42;7.80;67.80
16402;DHT22;8310;44.626;11.176;2024-03-08T05:10:11;7.80;67.80
16402;DHT22;8310;44.626;11.176;2024-03-08T05:12:38;7.70;67.70
16402;DHT22;8310;44.626;11.176;2024-03-08T05:15:07;7.50;67.60
16402;DHT22;8310;44.626;11.176;2024-03-08T05:17:35;7.50;67.60
16402;DHT22;8310;44.626;11.176;2024-03-08T05:20:02;7.40;67.70
16402;DHT22;8310;44.626;11.176;2024-03-08T05:22:29;7.30;67.70
16402;DHT22;8310;44.626;11.176;2024-03-08T05:24:56;7.30;67.80
16402;DHT22;8310;44.626;11.176;2024-03-08T05:27:23;7.20;67.70
16402;DHT22;8310;44.626;11.176;2024-03-08T05:29:50;7.20;67.80
16402;DHT22;8310;44.626;11.176;2024-03-08T05:32:19;7.20;68.00
16402;DHT22;8310;44.626;11.176;2024-03-08T05:34:46;7.20;68.00
16402;DHT22;8310;44.626;11.176;2024-03-08T05:37:13;7.20;68.10
16402;DHT22;8310;44.626;11.176;2024-03-08T05:39:40;7.20;68.10
16402;DHT22;8310;44.626;11.176;2024-03-08T05:42:08;7.30;68.30
16402;DHT22;8310;44.626;11.176;2024-03-08T05:44:35;7.30;68.40
16402;DHT22;8310;44.626;11.176;2024-03-08T05:47:02;7.40;68.40
16402;DHT22;8310;44.626;11.176;2024-03-08T06:02:28;7.70;68.80
16402;DHT22;8310;44.626;11.176;2024-03-08T06:04:55;7.70;68.70
16402;DHT22;8310;44.626;11.176;2024-03-08T06:07:23;7.90;69.10
16402;DHT22;8310;44.626;11.176;2024-03-08T06:09:50;8.00;69.80
16402;DHT22;8310;44.626;11.176;2024-03-08T06:20:05;8.50;71.60
16402;DHT22;8310;44.626;11.176;2024-03-08T06:38:09;9.10;70.70
16402;DHT22;8310;44.626;11.176;2024-03-08T06:43:12;8.90;70.50
16402;DHT22;8310;44.626;11.176;2024-03-08T06:45:41;9.00;72.30
16402;DHT22;8310;44.626;11.176;2024-03-08T06:48:13;9.50;76.30
16402;DHT22;8310;44.626;11.176;2024-03-08T06:50:41;10.20;78.00
16402;DHT22;8310;44.626;11.176;2024-03-08T06:53:09;10.70;76.70
16402;DHT22;8310;44.626;11.176;2024-03-08T06:55:36;10.70;74.70
16402;DHT22;8310;44.626;11.176;2024-03-08T06:58:04;10.50;73.50
16402;DHT22;8310;44.626;11.176;2024-03-08T07:00:32;10.20;71.50
16402;DHT22;8310;44.626;11.176;2024-03-08T07:02:59;9.90;70.80
16402;DHT22;8310;44.626;11.176;2024-03-08T07:05:27;9.60;70.50
16402;DHT22;8310;44.626;11.176;2024-03-08T07:07:54;9.40;70.40
16402;DHT22;8310;44.626;11.176;2024-03-08T07:10:23;9.20;70.70
16402;DHT22;8310;44.626;11.176;2024-03-08T07:12:51;9.20;71.00
16402;DHT22;8310;44.626;11.176;2024-03-08T07:15:18;9.10;70.80
16402;DHT22;8310;44.626;11.176;2024-03-08T07:17:45;9.10;70.70
16402;DHT22;8310;44.626;11.176;2024-03-08T07:20:13;9.10;70.70
16402;DHT22;8310;44.626;11.176;2024-03-08T07:22:44;9.10;70.70
16402;DHT22;8310;44.626;11.176;2024-03-08T07:25:12;9.10;70.80
16402;DHT22;8310;44.626;11.176;2024-03-08T07:27:48;9.10;70.80
16402;DHT22;8310;44.626;11.176;2024-03-08T07:30:15;9.20;71.10
16402;DHT22;8310;44.626;11.176;2024-03-08T07:33:04;9.30;71.30
16402;DHT22;8310;44.626;11.176;2024-03-08T07:35:32;9.40;71.70
16402;DHT22;8310;44.626;11.176;2024-03-08T07:38:02;9.70;73.10
16402;DHT22;8310;44.626;11.176;2024-03-08T07:40:30;10.10;74.40
16402;DHT22;8310;44.626;11.176;2024-03-08T07:42:59;10.70;75.00
16402;DHT22;8310;44.626;11.176;2024-03-08T07:45:26;11.10;75.10
16402;DHT22;8310;44.626;11.176;2024-03-08T07:47:53;11.50;75.20
16402;DHT22;8310;44.626;11.176;2024-03-08T07:50:21;11.80;75.20
16402;DHT22;8310;44.626;11.176;2024-03-08T07:52:49;12.00;75.00
16402;DHT22;8310;44.626;11.176;2024-03-08T07:55:16;12.10;74.40
16402;DHT22;8310;44.626;11.176;2024-03-08T07:57:43;12.20;74.00
16402;DHT22;8310;44.626;11.176;2024-03-08T08:00:13;12.20;73.60
16402;DHT22;8310;44.626;11.176;2024-03-08T08:02:43;12.10;73.00
16402;DHT22;8310;44.626;11.176;2024-03-08T08:05:11;12.10;72.40
16402;DHT22;8310;44.626;11.176;2024-03-08T08:07:39;11.90;71.80
16402;DHT22;8310;44.626;11.176;2024-03-08T08:10:09;11.90;71.80
16402;DHT22;8310;44.626;11.176;2024-03-08T08:12:42;11.80;71.80
16402;DHT22;8310;44.626;11.176;2024-03-08T08:15:09;11.80;71.50
16402;DHT22;8310;44.626;11.176;2024-03-08T08:17:37;11.70;70.90
16402;DHT22;8310;44.626;11.176;2024-03-08T08:20:05;11.60;70.60
16402;DHT22;8310;44.626;11.176;2024-03-08T08:22:32;11.50;70.00
16402;DHT22;8310;44.626;11.176;2024-03-08T08:24:59;11.30;69.90
16402;DHT22;8310;44.626;11.176;2024-03-08T08:27:27;11.10;70.00
16402;DHT22;8310;44.626;11.176;2024-03-08T08:29:53;11.00;70.20
16402;DHT22;8310;44.626;11.176;2024-03-08T08:32:21;11.00;70.70
16402;DHT22;8310;44.626;11.176;2024-03-08T08:34:49;11.10;71.10
16402;DHT22;8310;44.626;11.176;2024-03-08T08:37:17;11.20;71.20
16402;DHT22;8310;44.626;11.176;2024-03-08T08:39:44;11.30;71.50
16402;DHT22;8310;44.626;11.176;2024-03-08T08:42:11;11.50;72.20
16402;DHT22;8310;44.626;11.176;2024-03-08T08:44:38;11.70;73.00
16402;DHT22;8310;44.626;11.176;2024-03-08T08:47:06;11.90;73.50
16402;DHT22;8310;44.626;11.176;2024-03-08T08:49:32;12.20;74.00
16402;DHT22;8310;44.626;11.176;2024-03-08T08:52:02;12.60;74.60
16402;DHT22;8310;44.626;11.176;2024-03-08T08:54:29;12.90;74.60
16402;DHT22;8310;44.626;11.176;2024-03-08T08:56:56;13.10;74.70
16402;DHT22;8310;44.626;11.176;2024-03-08T08:59:23;13.40;74.90
16402;DHT22;8310;44.626;11.176;2024-03-08T09:01:51;13.60;75.00
16402;DHT22;8310;44.626;11.176;2024-03-08T09:04:20;13.80;74.90
16402;DHT22;8310;44.626;11.176;2024-03-08T09:06:48;14.00;74.50
16402;DHT22;8310;44.626;11.176;2024-03-08T09:09:16;14.00;74.20
16402;DHT22;8310;44.626;11.176;2024-03-08T09:11:44;14.10;73.70
16402;DHT22;8310;44.626;11.176;2024-03-08T09:14:12;14.10;73.50
16402;DHT22;8310;44.626;11.176;2024-03-08T09:16:39;14.10;72.80
16402;DHT22;8310;44.626;11.176;2024-03-08T09:19:06;13.90;72.00
16402;DHT22;8310;44.626;11.176;2024-03-08T09:21:36;13.80;72.20
16402;DHT22;8310;44.626;11.176;2024-03-08T09:24:03;13.80;72.80
16402;DHT22;8310;44.626;11.176;2024-03-08T09:26:32;13.90;72.60
16402;DHT22;8310;44.626;11.176;2024-03-08T09:29:00;13.90;72.20
16402;DHT22;8310;44.626;11.176;2024-03-08T09:31:27;13.90;72.30
16402;DHT22;8310;44.626;11.176;2024-03-08T09:33:55;13.90;73.00
16402;DHT22;8310;44.626;11.176;2024-03-08T09:36:22;14.10;73.70
16402;DHT22;8310;44.626;11.176;2024-03-08T09:38:50;14.30;74.00
16402;DHT22;8310;44.626;11.176;2024-03-08T09:41:18;14.60;74.60
16402;DHT22;8310;44.626;11.176;2024-03-08T09:43:46;14.90;74.90
16402;DHT22;8310;44.626;11.176;2024-03-08T09:46:14;15.10;75.00
16402;DHT22;8310;44.626;11.176;2024-03-08T09:48:41;15.40;75.30
16402;DHT22;8310;44.626;11.176;2024-03-08T09:51:09;15.60;75.30
16402;DHT22;8310;44.626;11.176;2024-03-08T09:53:39;15.80;75.10
16402;DHT22;8310;44.626;11.176;2024-03-08T09:56:07;16.00;74.90
16402;DHT22;8310;44.626;11.176;2024-03-08T09:58:35;16.10;74.40
16402;DHT22;8310;44.626;11.176;2024-03-08T10:01:21;16.10;74.30
16402;DHT22;8310;44.626;11.176;2024-03-08T10:03:48;16.20;74.60
16402;DHT22;8310;44.626;11.176;2024-03-08T10:06:16;16.30;74.80
16402;DHT22;8310;44.626;11.176;2024-03-08T10:08:43;16.50;75.00
16402;DHT22;8310;44.626;11.176;2024-03-08T10:11:11;16.70;74.90
16402;DHT22;8310;44.626;11.176;2024-03-08T10:13:38;16.80;74.80
16402;DHT22;8310;44.626;11.176;2024-03-08T10:16:06;16.90;74.60
16402;DHT22;8310;44.626;11.176;2024-03-08T10:18:36;17.00;74.90
16402;DHT22;8310;44.626;11.176;2024-03-08T10:21:03;17.20;75.20
16402;DHT22;8310;44.626;11.176;2024-03-08T10:23:31;17.40;75.40
16402;DHT22;8310;44.626;11.176;2024-03-08T10:26:09;17.60;75.10
16402;DHT22;8310;44.626;11.176;2024-03-08T10:28:36;17.70;74.70
16402;DHT22;8310;44.626;11.176;2024-03-08T10:31:04;17.80;74.90
16402;DHT22;8310;44.626;11.176;2024-03-08T10:33:32;17.90;74.20
16402;DHT22;8310;44.626;11.176;2024-03-08T10:36:00;17.80;73.40
16402;DHT22;8310;44.626;11.176;2024-03-08T10:38:29;17.80;73.00
16402;DHT22;8310;44.626;11.176;2024-03-08T10:40:58;17.70;73.10
16402;DHT22;8310;44.626;11.176;2024-03-08T10:43:25;17.70;73.30
16402;DHT22;8310;44.626;11.176;2024-03-08T10:45:58;17.60;73.40
16402;DHT22;8310;44.626;11.176;2024-03-08T10:48:31;17.70;74.00
16402;DHT22;8310;44.626;11.176;2024-03-08T10:50:58;17.90;74.10
16402;DHT22;8310;44.626;11.176;2024-03-08T10:53:28;17.90;74.00
16402;DHT22;8310;44.626;11.176;2024-03-08T10:55:56;18.00;73.80
16402;DHT22;8310;44.626;11.176;2024-03-08T10:58:23;18.00;73.40
16402;DHT22;8310;44.626;11.176;2024-03-08T11:00:52;18.00;73.30
16402;DHT22;8310;44.626;11.176;2024-03-08T11:06:13;18.00;73.40
16402;DHT22;8310;44.626;11.176;2024-03-08T11:08:42;18.10;73.50
16402;DHT22;8310;44.626;11.176;2024-03-08T11:11:23;18.10;73.40
16402;DHT22;8310;44.626;11.176;2024-03-08T11:13:52;18.20;73.60
16402;DHT22;8310;44.626;11.176;2024-03-08T11:19:05;18.40;73.90
16402;DHT22;8310;44.626;11.176;2024-03-08T11:21:35;18.50;74.00
16402;DHT22;8310;44.626;11.176;2024-03-08T11:24:08;18.60;74.10
16402;DHT22;8310;44.626;11.176;2024-03-08T11:26:39;18.80;74.30
16402;DHT22;8310;44.626;11.176;2024-03-08T11:31:54;19.10;74.40
16402;DHT22;8310;44.626;11.176;2024-03-08T11:34:30;19.20;74.20
16402;DHT22;8310;44.626;11.176;2024-03-08T11:36:58;19.30;73.80
16402;DHT22;8310;44.626;11.176;2024-03-08T11:39:27;19.20;73.20
16402;DHT22;8310;44.626;11.176;2024-03-08T11:41:56;19.20;73.20
16402;DHT22;8310;44.626;11.176;2024-03-08T11:44:26;19.20;73.40
16402;DHT22;8310;44.626;11.176;2024-03-08T11:46:53;19.20;73.30
16402;DHT22;8310;44.626;11.176;2024-03-08T11:49:20;19.20;73.00
16402;DHT22;8310;44.626;11.176;2024-03-08T11:51:50;19.20;73.00
16402;DHT22;8310;44.626;11.176;2024-03-08T11:54:18;19.10;72.80
16402;DHT22;8310;44.626;11.176;2024-03-08T11:56:47;19.10;72.50
16402;DHT22;8310;44.626;11.176;2024-03-08T11:59:14;19.00;72.40
16402;DHT22;8310;44.626;11.176;2024-03-08T12:01:43;19.00;72.60
16402;DHT22;8310;44.626;11.176;2024-03-08T12:04:11;19.00;72.40
16402;DHT22;8310;44.626;11.176;2024-03-08T12:06:39;18.90;72.20
16402;DHT22;8310;44.626;11.176;2024-03-08T12:09:07;18.80;72.00
16402;DHT22;8310;44.626;11.176;2024-03-08T12:11:35;18.80;72.00
16402;DHT22;8310;44.626;11.176;2024-03-08T12:14:04;18.70;71.80
16402;DHT22;8310;44.626;11.176;2024-03-08T12:16:32;18.60;71.70
16402;DHT22;8310;44.626;11.176;2024-03-08T12:18:59;18.60;71.70
16402;DHT22;8310;44.626;11.176;2024-03-08T12:21:31;18.50;71.50
16402;DHT22;8310;44.626;11.176;2024-03-08T12:24:04;18.50;71.50
16402;DHT22;8310;44.626;11.176;2024-03-08T12:26:35;18.40;71.70
16402;DHT22;8310;44.626;11.176;2024-03-08T12:29:16;18.40;72.00
16402;DHT22;8310;44.626;11.176;2024-03-08T12:31:45;18.50;72.00
16402;DHT22;8310;44.626;11.176;2024-03-08T12:34:12;18.40;71.70
16402;DHT22;8310;44.626;11.176;2024-03-08T12:36:43;18.40;71.50
16402;DHT22;8310;44.626;11.176;2024-03-08T12:39:13;18.40;71.50
16402;DHT22;8310;44.626;11.176;2024-03-08T12:41:41;18.30;71.50
16402;DHT22;8310;44.626;11.176;2024-03-08T12:44:08;18.30;71.50
16402;DHT22;8310;44.626;11.176;2024-03-08T12:46:38;18.30;71.30
16402;DHT22;8310;44.626;11.176;2024-03-08T12:49:07;18.20;71.10
16402;DHT22;8310;44.626;11.176;2024-03-08T12:51:34;18.10;71.20
16402;DHT22;8310;44.626;11.176;2024-03-08T12:54:02;18.10;71.70
16402;DHT22;8310;44.626;11.176;2024-03-08T12:56:29;18.20;72.20
16402;DHT22;8310;44.626;11.176;2024-03-08T12:58:57;18.30;72.60
16402;DHT22;8310;44.626;11.176;2024-03-08T13:01:24;18.40;72.40
16402;DHT22;8310;44.626;11.176;2024-03-08T13:03:53;18.50;72.10
16402;DHT22;8310;44.626;11.176;2024-03-08T13:06:20;18.50;72.00
16402;DHT22;8310;44.626;11.176;2024-03-08T13:08:49;18.50;71.80
16402;DHT22;8310;44.626;11.176;2024-03-08T13:11:17;18.50;71.60
16402;DHT22;8310;44.626;11.176;2024-03-08T13:13:45;18.50;71.60
16402;DHT22;8310;44.626;11.176;2024-03-08T13:16:12;18.50;71.60
16402;DHT22;8310;44.626;11.176;2024-03-08T13:18:40;18.50;71.60
16402;DHT22;8310;44.626;11.176;2024-03-08T13:21:10;18.50;71.50
16402;DHT22;8310;44.626;11.176;2024-03-08T13:23:40;18.50;71.50
16402;DHT22;8310;44.626;11.176;2024-03-08T13:26:11;18.40;71.40
16402;DHT22;8310;44.626;11.176;2024-03-08T13:28:40;18.40;71.20
16402;DHT22;8310;44.626;11.176;2024-03-08T13:31:07;18.30;70.90
16402;DHT22;8310;44.626;11.176;2024-03-08T13:33:35;18.30;71.00
16402;DHT22;8310;44.626;11.176;2024-03-08T13:36:03;18.20;71.20
16402;DHT22;8310;44.626;11.176;2024-03-08T13:38:33;18.20;71.20
16402;DHT22;8310;44.626;11.176;2024-03-08T13:41:01;18.20;71.20
16402;DHT22;8310;44.626;11.176;2024-03-08T13:43:29;18.20;71.10
16402;DHT22;8310;44.626;11.176;2024-03-08T13:45:59;18.10;71.10
16402;DHT22;8310;44.626;11.176;2024-03-08T13:48:26;18.10;71.00
16402;DHT22;8310;44.626;11.176;2024-03-08T13:50:54;18.10;71.00
16402;DHT22;8310;44.626;11.176;2024-03-08T13:53:22;18.10;71.30
16402;DHT22;8310;44.626;11.176;2024-03-08T13:55:51;18.10;71.60
16402;DHT22;8310;44.626;11.176;2024-03-08T13:58:18;18.20;71.90
16402;DHT22;8310;44.626;11.176;2024-03-08T14:00:46;18.30;72.00
16402;DHT22;8310;44.626;11.176;2024-03-08T14:03:13;18.40;71.90
16402;DHT22;8310;44.626;11.176;2024-03-08T14:05:40;18.50;72.60
16402;DHT22;8310;44.626;11.176;2024-03-08T14:08:07;18.50;71.60
16402;DHT22;8310;44.626;11.176;2024-03-08T14:10:35;18.50;71.20
16402;DHT22;8310;44.626;11.176;2024-03-08T14:13:04;18.40;70.60
16402;DHT22;8310;44.626;11.176;2024-03-08T14:15:32;18.30;70.30
16402;DHT22;8310;44.626;11.176;2024-03-08T14:18:00;18.10;70.00
16402;DHT22;8310;44.626;11.176;2024-03-08T14:20:27;18.00;69.90
16402;DHT22;8310;44.626;11.176;2024-03-08T14:22:54;17.80;69.80
16402;DHT22;8310;44.626;11.176;2024-03-08T14:25:21;17.70;69.80
16402;DHT22;8310;44.626;11.176;2024-03-08T14:27:49;17.60;69.90
16402;DHT22;8310;44.626;11.176;2024-03-08T14:30:18;17.50;70.00
16402;DHT22;8310;44.626;11.176;2024-03-08T14:32:58;17.50;70.00
16402;DHT22;8310;44.626;11.176;2024-03-08T14:35:25;17.40;70.00
16402;DHT22;8310;44.626;11.176;2024-03-08T14:37:52;17.40;70.10
16402;DHT22;8310;44.626;11.176;2024-03-08T14:40:19;17.30;70.30
16402;DHT22;8310;44.626;11.176;2024-03-08T14:42:47;17.30;70.50
16402;DHT22;8310;44.626;11.176;2024-03-08T14:45:15;17.40;70.70
16402;DHT22;8310;44.626;11.176;2024-03-08T14:47:43;17.40;70.60
16402;DHT22;8310;44.626;11.176;2024-03-08T14:50:15;17.40;70.50
16402;DHT22;8310;44.626;11.176;2024-03-08T14:52:42;17.40;70.40
16402;DHT22;8310;44.626;11.176;2024-03-08T14:55:10;17.40;70.30
16402;DHT22;8310;44.626;11.176;2024-03-08T14:57:40;17.30;70.20
16402;DHT22;8310;44.626;11.176;2024-03-08T15:00:08;17.30;70.10
16402;DHT22;8310;44.626;11.176;2024-03-08T15:02:43;17.20;69.90
16402;DHT22;8310;44.626;11.176;2024-03-08T15:05:10;17.10;69.80
16402;DHT22;8310;44.626;11.176;2024-03-08T15:07:39;17.00;69.60
16402;DHT22;8310;44.626;11.176;2024-03-08T15:10:07;16.90;69.50
16402;DHT22;8310;44.626;11.176;2024-03-08T15:12:37;16.80;69.50
16402;DHT22;8310;44.626;11.176;2024-03-08T15:15:05;16.70;69.40
16402;DHT22;8310;44.626;11.176;2024-03-08T15:17:35;16.60;69.40
16402;DHT22;8310;44.626;11.176;2024-03-08T15:20:08;16.50;69.30
16402;DHT22;8310;44.626;11.176;2024-03-08T15:22:42;16.40;69.20
16402;DHT22;8310;44.626;11.176;2024-03-08T15:25:09;16.30;69.10
16402;DHT22;8310;44.626;11.176;2024-03-08T15:27:42;16.20;69.10
16402;DHT22;8310;44.626;11.176;2024-03-08T15:30:10;16.10;69.20
16402;DHT22;8310;44.626;11.176;2024-03-08T15:32:39;16.10;69.20
16402;DHT22;8310;44.626;11.176;2024-03-08T15:35:08;16.00;69.20
16402;DHT22;8310;44.626;11.176;2024-03-08T15:37:39;15.90;69.20
16402;DHT22;8310;44.626;11.176;2024-03-08T15:40:08;15.80;69.10
16402;DHT22;8310;44.626;11.176;2024-03-08T15:42:37;15.80;69.10
16402;DHT22;8310;44.626;11.176;2024-03-08T15:45:05;15.70;69.00
16402;DHT22;8310;44.626;11.176;2024-03-08T15:47:34;15.60;69.00
16402;DHT22;8310;44.626;11.176;2024-03-08T15:50:02;15.60;69.10
16402;DHT22;8310;44.626;11.176;2024-03-08T15:52:31;15.50;69.10
16402;DHT22;8310;44.626;11.176;2024-03-08T15:54:58;15.50;69.90
16402;DHT22;8310;44.626;11.176;2024-03-08T15:57:25;15.50;69.20
16402;DHT22;8310;44.626;11.176;2024-03-08T15:59:52;15.40;69.20
16402;DHT22;8310;44.626;11.176;2024-03-08T16:02:24;15.40;69.20
16402;DHT22;8310;44.626;11.176;2024-03-08T16:04:53;15.30;69.10
16402;DHT22;8310;44.626;11.176;2024-03-08T16:07:20;15.30;69.00
16402;DHT22;8310;44.626;11.176;2024-03-08T16:09:49;15.30;69.10
16402;DHT22;8310;44.626;11.176;2024-03-08T16:12:16;15.20;69.00
16402;DHT22;8310;44.626;11.176;2024-03-08T16:14:43;15.10;68.90
16402;DHT22;8310;44.626;11.176;2024-03-08T16:17:10;15.10;68.90
16402;DHT22;8310;44.626;11.176;2024-03-08T16:19:38;15.00;68.80
16402;DHT22;8310;44.626;11.176;2024-03-08T16:22:07;15.00;68.90
16402;DHT22;8310;44.626;11.176;2024-03-08T16:24:34;14.90;68.80
16402;DHT22;8310;44.626;11.176;2024-03-08T16:27:04;14.90;68.80
16402;DHT22;8310;44.626;11.176;2024-03-08T16:29:31;14.90;68.80